Time;durP1;ratioP1;P1;durP2;ratioP2;P2;SDS_P1;SDS_P2;PMS_P1;PMS_P2;Temp;Humidity;BMP_temperature;BMP_pressure;BME280_temperature;BME280_humidity;BME280_pressure;Samples;Min_cycle;Max_cycle;Signal;HPM_P1;HPM_P2
2021/12/30 00:01:10;;;;;;;0.60;0.60;;;-2.80;99.90;;;;;;5071976;28;20703;-76
2021/12/30 00:03:36;;;;;;;0.70;0.70;;;-2.80;99.90;;;;;;5054846;28;20278;-75
2021/12/30 00:06:02;;;;;;;0.70;0.70;;;-2.80;99.90;;;;;;5072011;28;20687;-75
2021/12/30 00:08:28;;;;;;;0.90;0.90;;;-2.80;99.90;;;;;;5071547;28;20231;-74
2021/12/30 00:10:55;;;;;;;0.80;0.80;;;-2.80;99.90;;;;;;5063018;28;20619;-75
2021/12/30 00:13:21;;;;;;;0.90;0.90;;;-2.80;99.90;;;;;;5056475;28;20250;-75
2021/12/30 00:15:47;;;;;;;1.17;1.17;;;-2.80;99.90;;;;;;5071874;28;20212;-75
2021/12/30 00:18:13;;;;;;;1.00;1.00;;;-2.80;99.90;;;;;;5070756;28;20279;-74
2021/12/30 00:20:39;;;;;;;0.80;0.80;;;-2.70;99.90;;;;;;5070398;28;20255;-76
2021/12/30 00:23:07;;;;;;;0.70;0.70;;;-2.80;99.90;;;;;;5070594;28;20291;-76
2021/12/30 00:25:40;;;;;;;1.00;1.00;;;-2.80;99.90;;;;;;5054524;28;20212;-75
2021/12/30 00:28:07;;;;;;;0.70;0.70;;;-2.80;99.90;;;;;;5064798;28;20612;-75
2021/12/30 00:30:33;;;;;;;0.77;0.77;;;-2.80;99.90;;;;;;5060877;28;20201;-75
2021/12/30 00:33:00;;;;;;;0.80;0.80;;;-2.70;99.90;;;;;;5071543;28;20188;-75
2021/12/30 00:35:26;;;;;;;0.90;0.90;;;-2.70;99.90;;;;;;5070321;28;20700;-75
2021/12/30 00:37:52;;;;;;;0.80;0.80;;;-2.70;99.90;;;;;;5039156;28;20316;-75
2021/12/30 00:40:17;;;;;;;0.73;0.73;;;-2.70;99.90;;;;;;5031723;28;20276;-75
2021/12/30 00:42:43;;;;;;;1.10;1.10;;;-2.70;99.90;;;;;;5029018;28;20197;-76
2021/12/30 00:45:09;;;;;;;1.60;1.52;;;-2.70;99.90;;;;;;5030421;28;20218;-75
2021/12/30 00:47:35;;;;;;;0.95;0.93;;;-2.70;99.90;;;;;;5029150;28;20201;-75
2021/12/30 00:50:00;;;;;;;1.20;1.20;;;-2.70;99.90;;;;;;5031648;28;20190;-74
2021/12/30 00:52:26;;;;;;;1.70;1.60;;;-2.70;99.90;;;;;;5031511;28;20214;-75
2021/12/30 00:54:52;;;;;;;1.10;1.10;;;-2.70;99.90;;;;;;5029421;28;20572;-75
2021/12/30 00:57:19;;;;;;;0.77;0.77;;;-2.70;99.90;;;;;;5023831;28;20198;-75
2021/12/30 00:59:44;;;;;;;0.88;0.88;;;-2.60;99.90;;;;;;5029509;28;20210;-75
2021/12/30 01:02:11;;;;;;;0.70;0.70;;;-2.60;99.90;;;;;;5031261;28;20218;-75
2021/12/30 01:04:37;;;;;;;0.80;0.80;;;-2.60;99.90;;;;;;5029005;28;20673;-75
2021/12/30 01:07:03;;;;;;;0.80;0.80;;;-2.60;99.90;;;;;;5030597;28;20209;-75
2021/12/30 01:09:29;;;;;;;4.68;3.65;;;-2.60;99.90;;;;;;5031159;28;20285;-75
2021/12/30 01:11:56;;;;;;;0.70;0.70;;;-2.60;99.90;;;;;;5031265;28;20275;-75
2021/12/30 01:14:25;;;;;;;0.80;0.80;;;-2.60;99.90;;;;;;5031252;28;20198;-75
2021/12/30 01:16:55;;;;;;;2.05;1.52;;;-2.60;99.90;;;;;;5029347;28;20230;-75
2021/12/30 01:20:04;;;;;;;0.80;0.80;;;-2.60;99.90;;;;;;5030047;28;20277;-75
2021/12/30 01:22:24;;;;;;;1.00;1.00;;;-2.60;99.90;;;;;;5026031;28;20707;-75
2021/12/30 01:24:51;;;;;;;0.70;0.70;;;-2.60;99.90;;;;;;5032410;28;20665;-75
2021/12/30 01:27:18;;;;;;;0.80;0.80;;;-2.60;99.90;;;;;;5031546;28;20673;-76
2021/12/30 01:29:43;;;;;;;5.30;2.58;;;-2.60;99.90;;;;;;5034457;28;20237;-74
2021/12/30 01:32:09;;;;;;;0.80;0.80;;;-2.50;99.90;;;;;;5032155;28;20271;-75
2021/12/30 01:34:36;;;;;;;0.70;0.70;;;-2.60;99.90;;;;;;5032139;28;20235;-75
2021/12/30 01:37:04;;;;;;;0.70;0.70;;;-2.50;99.90;;;;;;5038233;28;20671;-76
2021/12/30 01:39:32;;;;;;;1.98;1.50;;;-2.50;99.90;;;;;;5073150;28;20205;-75
2021/12/30 01:41:59;;;;;;;0.80;0.80;;;-2.50;99.90;;;;;;5057535;28;20226;-74
2021/12/30 01:44:25;;;;;;;0.70;0.70;;;-2.40;99.90;;;;;;5073123;28;20200;-75
2021/12/30 01:46:52;;;;;;;0.90;0.90;;;-2.40;99.90;;;;;;5073394;28;20198;-76
2021/12/30 01:49:17;;;;;;;0.70;0.70;;;-2.40;99.90;;;;;;5073151;28;20258;-75
2021/12/30 01:51:44;;;;;;;0.75;0.75;;;-2.40;99.90;;;;;;5074250;28;20209;-75
2021/12/30 01:54:10;;;;;;;0.80;0.80;;;-2.40;99.90;;;;;;5056541;28;20716;-76
2021/12/30 01:56:36;;;;;;;0.80;0.80;;;-2.40;99.90;;;;;;5072735;28;20229;-76
2021/12/30 01:59:03;;;;;;;1.60;1.17;;;-2.30;99.90;;;;;;5073625;28;20247;-76
2021/12/30 02:01:29;;;;;;;0.60;0.60;;;-2.40;99.90;;;;;;5072686;28;20279;-75
2021/12/30 02:03:55;;;;;;;0.60;0.60;;;-2.40;99.90;;;;;;5056049;28;20579;-75
2021/12/30 02:06:21;;;;;;;1.13;1.02;;;-2.40;99.90;;;;;;5072667;28;20209;-74
2021/12/30 02:08:47;;;;;;;1.83;1.73;;;-2.40;99.90;;;;;;5056974;28;20209;-76
2021/12/30 02:11:13;;;;;;;0.60;0.60;;;-2.30;99.90;;;;;;5073829;28;20292;-75
2021/12/30 02:13:39;;;;;;;0.70;0.70;;;-2.30;99.90;;;;;;5073676;28;20664;-75
2021/12/30 02:16:05;;;;;;;0.75;0.75;;;-2.30;99.90;;;;;;5055823;28;20227;-75
2021/12/30 02:18:31;;;;;;;0.77;0.77;;;-2.30;99.90;;;;;;5056675;28;20235;-76
2021/12/30 02:20:59;;;;;;;3.60;1.55;;;-2.30;99.90;;;;;;5072485;28;20601;-75
2021/12/30 02:23:29;;;;;;;0.75;0.75;;;-2.20;99.90;;;;;;5070555;28;20291;-75
2021/12/30 02:25:58;;;;;;;0.85;0.85;;;-2.10;99.90;;;;;;5072241;28;20197;-75
2021/12/30 02:28:27;;;;;;;0.60;0.60;;;-2.10;99.90;;;;;;5072216;28;20235;-75
2021/12/30 02:30:55;;;;;;;1.73;1.10;;;-2.10;99.90;;;;;;5056527;28;20634;-76
2021/12/30 02:33:22;;;;;;;0.70;0.70;;;-2.00;99.90;;;;;;5072840;28;20330;-76
2021/12/30 02:35:48;;;;;;;0.70;0.70;;;-2.00;99.90;;;;;;5071753;28;20204;-76
2021/12/30 02:38:16;;;;;;;0.98;0.95;;;-1.90;99.90;;;;;;5037739;28;20222;-75
2021/12/30 02:40:45;;;;;;;0.80;0.80;;;-1.90;99.90;;;;;;5032098;28;20581;-75
2021/12/30 02:43:21;;;;;;;3.85;2.10;;;-1.90;99.90;;;;;;5030947;28;20197;-76
2021/12/30 02:45:46;;;;;;;0.93;0.93;;;-1.80;99.90;;;;;;5032405;28;22115;-75
2021/12/30 02:48:19;;;;;;;0.70;0.70;;;-1.90;99.90;;;;;;5032185;28;20198;-75
2021/12/30 02:50:46;;;;;;;0.70;0.70;;;-1.90;99.90;;;;;;5013631;28;20217;-75
2021/12/30 02:53:13;;;;;;;0.70;0.70;;;-1.80;99.90;;;;;;5032616;28;20546;-75
2021/12/30 02:55:40;;;;;;;0.90;0.90;;;-1.90;99.90;;;;;;5031400;28;20206;-75
2021/12/30 02:58:06;;;;;;;0.80;0.80;;;-1.80;99.90;;;;;;5019384;28;20202;-75
2021/12/30 03:00:32;;;;;;;0.82;0.82;;;-1.80;99.90;;;;;;5026078;28;20217;-75
2021/12/30 03:02:57;;;;;;;0.95;0.95;;;-1.80;99.90;;;;;;5031860;28;20206;-75
2021/12/30 03:05:24;;;;;;;1.00;1.00;;;-1.80;99.90;;;;;;5030274;28;20612;-76
2021/12/30 03:07:54;;;;;;;1.48;1.40;;;-1.80;99.90;;;;;;5031684;28;20202;-75
2021/12/30 03:10:22;;;;;;;2.28;1.98;;;-1.80;99.90;;;;;;5031506;28;20202;-76
2021/12/30 03:12:53;;;;;;;0.80;0.80;;;-1.80;99.90;;;;;;5032879;28;20198;-75
2021/12/30 03:15:19;;;;;;;0.80;0.80;;;-1.80;99.90;;;;;;5031460;28;20249;-76
2021/12/30 03:17:45;;;;;;;0.70;0.70;;;-1.80;99.90;;;;;;5031505;28;20202;-75
2021/12/30 03:20:11;;;;;;;0.70;0.70;;;-1.80;99.90;;;;;;5028426;28;20208;-76
2021/12/30 03:22:38;;;;;;;3.50;1.95;;;-1.80;99.90;;;;;;5030399;28;20664;-76
2021/12/30 03:25:06;;;;;;;3.40;1.48;;;-1.80;99.90;;;;;;5030083;28;20214;-76
2021/12/30 03:27:32;;;;;;;0.70;0.70;;;-1.80;99.90;;;;;;5030812;28;20612;-76
2021/12/30 03:29:57;;;;;;;0.60;0.60;;;-1.80;99.90;;;;;;5031316;28;20198;-75
2021/12/30 03:32:23;;;;;;;0.75;0.75;;;-1.80;99.90;;;;;;5030904;28;20289;-76
2021/12/30 03:34:49;;;;;;;0.82;0.82;;;-1.80;99.90;;;;;;5031152;28;20672;-76
2021/12/30 03:37:14;;;;;;;0.77;0.77;;;-1.70;99.90;;;;;;5040693;28;20220;-76
2021/12/30 03:39:40;;;;;;;0.65;0.65;;;-1.70;99.90;;;;;;5070834;28;21074;-76
2021/12/30 03:42:07;;;;;;;0.85;0.85;;;-1.60;99.90;;;;;;5071105;28;20192;-76
2021/12/30 03:44:33;;;;;;;0.80;0.80;;;-1.60;99.90;;;;;;5071325;28;20216;-75
2021/12/30 03:46:59;;;;;;;0.80;0.80;;;-1.50;99.90;;;;;;5054830;28;20200;-75
2021/12/30 03:49:25;;;;;;;0.73;0.73;;;-1.50;99.90;;;;;;5072090;28;20288;-76
2021/12/30 03:51:53;;;;;;;0.90;0.90;;;-1.40;99.90;;;;;;5053915;28;20715;-76
2021/12/30 03:54:19;;;;;;;0.68;0.68;;;-1.40;99.90;;;;;;5070748;28;20565;-77
2021/12/30 03:56:45;;;;;;;0.63;0.63;;;-1.40;99.90;;;;;;5067750;28;20312;-78
2021/12/30 03:59:11;;;;;;;0.70;0.70;;;-1.40;99.90;;;;;;5051908;28;20236;-76
2021/12/30 04:01:37;;;;;;;0.80;0.80;;;-1.40;99.90;;;;;;5052882;28;20303;-77
2021/12/30 04:04:03;;;;;;;1.00;1.00;;;-1.40;99.90;;;;;;5072537;28;20741;-77
2021/12/30 04:06:29;;;;;;;1.55;1.45;;;-1.40;99.90;;;;;;5053477;28;20254;-77
2021/12/30 04:08:58;;;;;;;0.93;0.93;;;-1.30;99.90;;;;;;5070703;28;20213;-77
2021/12/30 04:11:26;;;;;;;1.40;1.30;;;-1.30;99.90;;;;;;5071334;28;20205;-76
2021/12/30 04:13:52;;;;;;;0.70;0.70;;;-1.30;99.90;;;;;;5061498;28;20659;-77
2021/12/30 04:16:20;;;;;;;4.63;2.00;;;-1.30;99.90;;;;;;5069575;28;20212;-77
2021/12/30 04:18:48;;;;;;;1.13;1.13;;;-1.20;99.90;;;;;;5068824;28;20287;-76
2021/12/30 04:21:16;;;;;;;0.73;0.73;;;-1.10;99.90;;;;;;5071570;28;20289;-77
2021/12/30 04:23:42;;;;;;;0.63;0.63;;;-1.10;99.90;;;;;;5053525;28;20207;-77
2021/12/30 04:26:08;;;;;;;0.70;0.70;;;-1.00;99.90;;;;;;5053922;28;20205;-77
2021/12/30 04:28:34;;;;;;;0.57;0.57;;;-1.00;99.90;;;;;;5054431;28;20212;-77
2021/12/30 04:30:59;;;;;;;0.70;0.70;;;-1.00;99.90;;;;;;5052148;28;20243;-77
2021/12/30 04:33:25;;;;;;;0.77;0.77;;;-0.90;99.90;;;;;;5071297;28;20679;-77
2021/12/30 04:35:56;;;;;;;0.85;0.85;;;-0.90;99.90;;;;;;5071527;28;20228;-77
2021/12/30 04:38:24;;;;;;;2.00;1.15;;;-0.90;99.90;;;;;;5054359;28;20237;-77
2021/12/30 04:40:50;;;;;;;1.30;1.20;;;-0.80;99.90;;;;;;5070847;28;20208;-77
2021/12/30 04:43:17;;;;;;;2.15;1.83;;;-0.80;99.90;;;;;;5071775;28;20205;-77
2021/12/30 04:45:44;;;;;;;0.68;0.68;;;-0.80;99.90;;;;;;5054395;28;20196;-77
2021/12/30 04:48:10;;;;;;;1.40;1.30;;;-0.70;99.90;;;;;;5054525;28;20205;-76
2021/12/30 04:50:36;;;;;;;1.55;1.08;;;-0.70;99.90;;;;;;5052946;28;20201;-76
2021/12/30 04:53:02;;;;;;;0.60;0.60;;;-0.60;99.90;;;;;;5064249;28;20197;-76
2021/12/30 04:55:28;;;;;;;0.68;0.68;;;-0.60;99.90;;;;;;5054671;28;20193;-76
2021/12/30 04:57:54;;;;;;;0.70;0.70;;;-0.60;99.90;;;;;;5055147;28;20256;-76
2021/12/30 05:00:20;;;;;;;0.70;0.70;;;-0.50;99.90;;;;;;5073955;28;20208;-76
2021/12/30 05:05:24;;;;;;;0.77;0.77;;;-0.50;99.90;;;;;;5075142;28;20207;-76
2021/12/30 05:07:50;;;;;;;0.85;0.80;;;-0.40;99.90;;;;;;5074941;28;20714;-76
2021/12/30 05:10:16;;;;;;;0.60;0.60;;;-0.40;99.90;;;;;;5073804;28;20213;-77
2021/12/30 05:12:42;;;;;;;1.95;1.05;;;-0.40;99.90;;;;;;5046856;28;20213;-76
2021/12/30 05:15:08;;;;;;;0.70;0.70;;;-0.40;99.90;;;;;;5069359;28;20204;-77
2021/12/30 05:17:35;;;;;;;0.60;0.60;;;-0.30;99.90;;;;;;5073060;28;20243;-78
2021/12/30 05:20:01;;;;;;;2.00;1.83;;;-0.30;99.90;;;;;;5074837;28;20544;-77
2021/12/30 05:22:27;;;;;;;1.33;1.23;;;-0.20;99.90;;;;;;5074154;28;20427;-79
2021/12/30 05:24:52;;;;;;;1.70;1.40;;;-0.20;99.90;;;;;;5073001;28;20467;-77
2021/12/30 05:27:19;;;;;;;1.67;1.35;;;-0.20;99.90;;;;;;5072826;28;20396;-76
2021/12/30 05:29:46;;;;;;;0.70;0.70;;;-0.20;99.90;;;;;;5073557;28;20209;-77
2021/12/30 05:32:12;;;;;;;1.02;1.02;;;-0.20;99.90;;;;;;5060174;28;20917;-77
2021/12/30 05:34:37;;;;;;;2.67;1.30;;;-0.20;99.90;;;;;;5065799;28;20224;-76
2021/12/30 05:37:03;;;;;;;1.00;0.95;;;-0.10;99.90;;;;;;5074494;28;20345;-76
2021/12/30 05:39:30;;;;;;;0.98;0.80;;;-0.10;99.90;;;;;;5066758;28;20201;-76
2021/12/30 05:41:56;;;;;;;0.70;0.70;;;-0.10;99.90;;;;;;5074498;28;20205;-76
2021/12/30 05:44:21;;;;;;;0.82;0.82;;;-0.10;99.90;;;;;;5073239;28;20205;-77
2021/12/30 05:46:47;;;;;;;1.17;1.08;;;-0.10;99.90;;;;;;5073404;28;20216;-77
2021/12/30 05:49:13;;;;;;;0.70;0.70;;;-0.10;99.90;;;;;;5088254;28;20292;-77
2021/12/30 05:51:41;;;;;;;0.60;0.60;;;-0.10;99.90;;;;;;5073009;28;20295;-76
2021/12/30 05:54:07;;;;;;;0.60;0.60;;;-0.10;99.90;;;;;;5074258;28;20200;-77
2021/12/30 05:56:33;;;;;;;3.35;1.92;;;-0.10;99.90;;;;;;5054867;28;20657;-77
2021/12/30 05:58:59;;;;;;;1.13;1.02;;;0.00;99.90;;;;;;5074129;28;20204;-76
2021/12/30 06:01:24;;;;;;;0.60;0.60;;;0.00;99.90;;;;;;5073550;28;20408;-77
2021/12/30 06:03:50;;;;;;;0.70;0.70;;;0.00;99.90;;;;;;5074362;28;20604;-77
2021/12/30 06:06:16;;;;;;;0.60;0.60;;;0.00;99.90;;;;;;5074220;28;20196;-77
2021/12/30 06:08:41;;;;;;;0.55;0.55;;;0.00;99.90;;;;;;5073826;28;20340;-78
2021/12/30 06:11:07;;;;;;;0.80;0.80;;;0.00;99.90;;;;;;5073969;28;20217;-77
2021/12/30 06:13:33;;;;;;;0.73;0.73;;;0.00;99.90;;;;;;5061227;28;20276;-77
2021/12/30 06:15:59;;;;;;;0.65;0.65;;;0.00;99.90;;;;;;5070003;28;20196;-77
2021/12/30 06:18:24;;;;;;;0.65;0.65;;;0.00;99.90;;;;;;5072296;28;20246;-78
2021/12/30 06:20:50;;;;;;;0.60;0.60;;;0.10;99.90;;;;;;5055913;28;20213;-77
2021/12/30 06:23:16;;;;;;;0.68;0.68;;;0.10;99.90;;;;;;5055996;28;20251;-76
2021/12/30 06:25:42;;;;;;;0.60;0.60;;;0.10;99.90;;;;;;5073492;28;20624;-76
2021/12/30 06:28:07;;;;;;;7.03;1.55;;;0.20;99.90;;;;;;5055965;28;20244;-76
2021/12/30 06:30:33;;;;;;;1.05;1.05;;;0.10;99.90;;;;;;5055290;28;20205;-76
2021/12/30 06:32:59;;;;;;;0.70;0.70;;;0.10;99.90;;;;;;5056758;28;20247;-76
2021/12/30 06:35:28;;;;;;;0.60;0.60;;;0.20;99.90;;;;;;5089960;28;20220;-76
2021/12/30 06:37:53;;;;;;;0.93;0.93;;;0.20;99.90;;;;;;5073538;28;20667;-77
2021/12/30 06:40:19;;;;;;;0.60;0.60;;;0.20;99.90;;;;;;5071867;28;20208;-77
2021/12/30 06:42:45;;;;;;;0.70;0.70;;;0.20;99.90;;;;;;5073428;28;20212;-77
2021/12/30 06:45:12;;;;;;;0.60;0.60;;;0.20;99.90;;;;;;5072109;28;20213;-75
2021/12/30 06:47:38;;;;;;;0.60;0.60;;;0.20;99.90;;;;;;5072019;28;20209;-76
2021/12/30 06:50:04;;;;;;;0.77;0.77;;;0.20;99.90;;;;;;5072139;28;20208;-76
2021/12/30 06:52:30;;;;;;;0.65;0.65;;;0.30;99.90;;;;;;5055426;28;20231;-76
2021/12/30 06:54:56;;;;;;;0.68;0.68;;;0.30;99.90;;;;;;5073157;28;20200;-76
2021/12/30 06:57:22;;;;;;;0.60;0.60;;;0.30;99.90;;;;;;5072038;28;20271;-76
2021/12/30 06:59:48;;;;;;;0.60;0.60;;;0.30;99.90;;;;;;5053619;28;20535;-76
2021/12/30 07:02:14;;;;;;;0.80;0.80;;;0.30;99.90;;;;;;5073910;28;20209;-77
2021/12/30 07:04:40;;;;;;;0.63;0.63;;;0.30;99.90;;;;;;5070407;28;20274;-77
2021/12/30 07:07:06;;;;;;;0.60;0.60;;;0.30;99.90;;;;;;5072916;28;20675;-76
2021/12/30 07:09:32;;;;;;;0.60;0.60;;;0.30;99.90;;;;;;5071592;28;20201;-77
2021/12/30 07:11:58;;;;;;;0.68;0.68;;;0.30;99.90;;;;;;5054794;28;20240;-77
2021/12/30 07:14:25;;;;;;;0.60;0.60;;;0.40;99.90;;;;;;5054891;28;20192;-76
2021/12/30 07:16:51;;;;;;;0.60;0.60;;;0.40;99.90;;;;;;5054770;28;20573;-76
2021/12/30 07:19:17;;;;;;;0.68;0.68;;;0.40;99.90;;;;;;5087810;28;20207;-76
2021/12/30 07:21:43;;;;;;;0.70;0.70;;;0.40;99.90;;;;;;5071865;28;20209;-76
2021/12/30 07:24:09;;;;;;;0.60;0.60;;;0.40;99.90;;;;;;5072362;28;20623;-76
2021/12/30 07:26:35;;;;;;;0.65;0.65;;;0.40;99.90;;;;;;5072256;28;20204;-76
2021/12/30 07:29:03;;;;;;;2.83;1.73;;;0.50;99.90;;;;;;5072531;28;20257;-76
2021/12/30 07:31:29;;;;;;;0.50;0.50;;;0.40;99.90;;;;;;5071979;28;20209;-76
2021/12/30 07:33:54;;;;;;;0.60;0.60;;;0.50;99.90;;;;;;5071166;28;20215;-76
2021/12/30 07:36:20;;;;;;;0.68;0.68;;;0.50;99.90;;;;;;5072254;28;20199;-76
2021/12/30 07:38:48;;;;;;;0.60;0.60;;;0.50;99.90;;;;;;5071208;28;20324;-76
2021/12/30 07:41:14;;;;;;;0.77;0.77;;;0.50;99.90;;;;;;5070977;28;20207;-76
2021/12/30 07:43:40;;;;;;;0.70;0.70;;;0.60;99.90;;;;;;5070857;28;20208;-76
2021/12/30 07:46:07;;;;;;;0.63;0.63;;;0.60;99.90;;;;;;5053313;28;20232;-76
2021/12/30 07:48:33;;;;;;;0.60;0.60;;;0.60;99.90;;;;;;5055064;28;20667;-76
2021/12/30 07:50:59;;;;;;;0.60;0.60;;;0.60;99.90;;;;;;5071918;28;20258;-76
2021/12/30 07:53:24;;;;;;;1.63;1.52;;;0.60;99.90;;;;;;5072145;28;20292;-76
2021/12/30 07:55:50;;;;;;;3.42;2.92;;;0.70;99.90;;;;;;5072030;28;20217;-76
2021/12/30 07:58:16;;;;;;;5.47;2.35;;;0.70;99.90;;;;;;5050375;28;20208;-76
2021/12/30 08:00:42;;;;;;;2.58;2.08;;;0.70;99.90;;;;;;5070953;28;20208;-76
2021/12/30 08:03:08;;;;;;;1.38;1.27;;;0.70;99.90;;;;;;5087183;28;20205;-76
2021/12/30 08:05:33;;;;;;;0.98;0.98;;;0.70;99.90;;;;;;5071495;28;20192;-76
2021/12/30 08:07:59;;;;;;;0.75;0.75;;;0.70;99.90;;;;;;5054788;28;20280;-76
2021/12/30 08:10:25;;;;;;;0.80;0.80;;;0.70;99.90;;;;;;5052892;28;20196;-77
2021/12/30 08:12:54;;;;;;;1.50;1.40;;;0.70;99.90;;;;;;5070672;28;20228;-76
2021/12/30 08:15:20;;;;;;;0.60;0.60;;;0.70;99.90;;;;;;5053809;28;20201;-77
2021/12/30 08:17:49;;;;;;;0.60;0.60;;;0.70;99.90;;;;;;5053972;28;20321;-78
2021/12/30 08:20:16;;;;;;;0.70;0.70;;;0.70;99.90;;;;;;5070671;28;20196;-76
2021/12/30 08:22:43;;;;;;;0.50;0.50;;;0.70;99.90;;;;;;5070458;28;20274;-76
2021/12/30 08:25:10;;;;;;;0.70;0.70;;;0.70;99.90;;;;;;5071616;28;20573;-76
2021/12/30 08:27:36;;;;;;;0.90;0.88;;;0.80;99.90;;;;;;5070160;28;20614;-76
2021/12/30 08:30:06;;;;;;;0.60;0.60;;;0.80;99.90;;;;;;5070397;28;20234;-76
2021/12/30 08:32:31;;;;;;;0.60;0.60;;;0.80;99.90;;;;;;5072511;28;20204;-77
2021/12/30 08:34:57;;;;;;;0.70;0.70;;;0.80;99.90;;;;;;5074961;28;20211;-77
2021/12/30 08:37:23;;;;;;;0.50;0.50;;;0.80;99.90;;;;;;5074326;28;20235;-76
2021/12/30 08:39:49;;;;;;;0.60;0.60;;;0.80;99.90;;;;;;5069797;28;20200;-76
2021/12/30 08:42:22;;;;;;;0.70;0.70;;;0.80;99.90;;;;;;5057742;28;20283;-76
2021/12/30 08:44:48;;;;;;;0.80;0.80;;;0.90;99.90;;;;;;5056395;28;20250;-76
2021/12/30 08:47:15;;;;;;;0.70;0.70;;;0.90;99.90;;;;;;5056313;28;20292;-77
2021/12/30 08:49:46;;;;;;;0.60;0.60;;;0.90;99.90;;;;;;5076445;28;20196;-77
2021/12/30 08:52:13;;;;;;;0.63;0.63;;;0.90;99.90;;;;;;5058305;28;20314;-77
2021/12/30 08:54:39;;;;;;;0.52;0.52;;;0.90;99.90;;;;;;5061122;28;20247;-79
2021/12/30 08:57:05;;;;;;;0.82;0.82;;;0.90;99.90;;;;;;5053305;28;20472;-78
2021/12/30 08:59:31;;;;;;;0.50;0.50;;;1.00;99.90;;;;;;5056380;28;20197;-78
2021/12/30 09:01:56;;;;;;;0.77;0.77;;;1.00;99.90;;;;;;5074508;28;20574;-77
2021/12/30 09:04:22;;;;;;;0.70;0.70;;;1.10;99.90;;;;;;5054991;28;20283;-77
2021/12/30 09:06:48;;;;;;;0.50;0.50;;;1.10;99.90;;;;;;5073981;28;20307;-76
2021/12/30 09:09:14;;;;;;;0.57;0.57;;;1.10;99.90;;;;;;5058198;28;20571;-78
2021/12/30 09:11:39;;;;;;;1.70;1.52;;;1.10;99.90;;;;;;5056947;28;20212;-77
2021/12/30 09:14:05;;;;;;;0.82;0.82;;;1.10;99.90;;;;;;5057128;28;20658;-77
2021/12/30 09:16:31;;;;;;;0.70;0.70;;;1.20;99.90;;;;;;5056921;28;20243;-76
2021/12/30 09:18:57;;;;;;;0.68;0.68;;;1.20;99.90;;;;;;5056755;28;20549;-76
2021/12/30 09:21:22;;;;;;;0.70;0.70;;;1.30;99.90;;;;;;5073565;28;20698;-77
2021/12/30 09:23:48;;;;;;;0.60;0.60;;;1.30;99.90;;;;;;5072901;28;20205;-78
2021/12/30 09:26:14;;;;;;;0.70;0.70;;;1.30;99.90;;;;;;5061965;28;20232;-77
2021/12/30 09:28:40;;;;;;;0.60;0.60;;;1.30;99.90;;;;;;5073404;28;20667;-77
2021/12/30 09:31:06;;;;;;;0.60;0.60;;;1.30;99.90;;;;;;5074709;28;20210;-76
2021/12/30 09:33:32;;;;;;;0.60;0.60;;;1.30;99.90;;;;;;5055618;28;20204;-76
2021/12/30 09:36:01;;;;;;;0.98;0.93;;;1.30;99.90;;;;;;5073606;28;20595;-76
2021/12/30 09:38:28;;;;;;;0.70;0.70;;;1.40;99.90;;;;;;5073393;28;20220;-76
2021/12/30 09:40:53;;;;;;;0.52;0.52;;;1.40;99.90;;;;;;5055555;28;20216;-76
2021/12/30 09:43:19;;;;;;;0.60;0.60;;;1.40;99.90;;;;;;5056822;28;20299;-77
2021/12/30 09:45:45;;;;;;;0.60;0.60;;;1.40;99.90;;;;;;5073549;28;20680;-76
2021/12/30 09:48:13;;;;;;;0.60;0.60;;;1.40;99.90;;;;;;5074440;28;20279;-77
2021/12/30 09:50:51;;;;;;;0.70;0.70;;;1.50;99.90;;;;;;5073962;28;20208;-77
2021/12/30 09:53:22;;;;;;;0.60;0.60;;;1.50;99.90;;;;;;5073187;28;20306;-76
2021/12/30 09:55:48;;;;;;;1.00;1.00;;;1.50;99.90;;;;;;5073154;28;20718;-77
2021/12/30 09:58:15;;;;;;;0.60;0.60;;;1.50;99.90;;;;;;5062804;28;20204;-76
2021/12/30 10:00:42;;;;;;;0.70;0.70;;;1.60;99.90;;;;;;5056051;28;20295;-77
2021/12/30 10:03:08;;;;;;;0.65;0.65;;;1.60;99.90;;;;;;5074370;28;20215;-77
2021/12/30 10:05:38;;;;;;;0.60;0.60;;;1.60;99.90;;;;;;5038746;28;20201;-76
2021/12/30 10:08:15;;;;;;;0.50;0.50;;;1.50;99.90;;;;;;5073614;28;20204;-77
2021/12/30 10:10:43;;;;;;;0.95;0.95;;;1.50;99.90;;;;;;5073540;28;20557;-77
2021/12/30 10:13:24;;;;;;;0.60;0.60;;;1.50;99.90;;;;;;5074423;28;20540;-78
2021/12/30 10:15:55;;;;;;;0.50;0.50;;;1.60;99.90;;;;;;5074180;28;20248;-77
2021/12/30 10:18:23;;;;;;;0.73;0.73;;;1.60;99.90;;;;;;5038595;28;23641;-77
2021/12/30 10:20:50;;;;;;;0.60;0.60;;;1.60;99.90;;;;;;5056350;28;20291;-77
2021/12/30 10:23:23;;;;;;;0.65;0.65;;;1.70;99.90;;;;;;5073919;28;20272;-76
2021/12/30 10:25:53;;;;;;;0.55;0.55;;;1.70;99.90;;;;;;5073699;28;20284;-77
2021/12/30 10:28:27;;;;;;;0.70;0.70;;;1.70;99.90;;;;;;5072892;28;20360;-77
2021/12/30 10:30:58;;;;;;;0.60;0.60;;;1.60;99.90;;;;;;5073772;28;20679;-76
2021/12/30 10:33:27;;;;;;;0.60;0.60;;;1.60;99.90;;;;;;5054391;28;20220;-76
2021/12/30 10:35:53;;;;;;;0.60;0.60;;;1.60;99.90;;;;;;5054814;28;20216;-77
2021/12/30 10:38:20;;;;;;;0.60;0.60;;;1.60;99.90;;;;;;5053874;28;20584;-77
2021/12/30 10:40:48;;;;;;;1.38;1.27;;;1.60;99.90;;;;;;5072268;28;20205;-76
2021/12/30 10:43:31;;;;;;;0.60;0.60;;;1.70;99.90;;;;;;5073425;28;20727;-77
2021/12/30 10:46:17;;;;;;;0.60;0.60;;;1.70;99.90;;;;;;5079931;28;20191;-77
2021/12/30 10:48:56;;;;;;;0.60;0.60;;;1.70;99.90;;;;;;5054403;28;20363;-78
2021/12/30 10:51:34;;;;;;;0.70;0.70;;;1.80;99.90;;;;;;5071973;28;20659;-77
2021/12/30 10:54:09;;;;;;;0.63;0.63;;;1.90;99.90;;;;;;5055074;28;20661;-77
2021/12/30 10:56:57;;;;;;;0.60;0.60;;;1.90;99.90;;;;;;5036763;28;20652;-76
2021/12/30 10:59:26;;;;;;;0.60;0.60;;;1.80;99.90;;;;;;5038591;28;20235;-77
2021/12/30 11:01:58;;;;;;;0.93;0.88;;;1.70;99.90;;;;;;5053584;28;20247;-77
2021/12/30 11:04:43;;;;;;;0.65;0.65;;;1.80;99.90;;;;;;5070675;28;20710;-77
2021/12/30 11:07:13;;;;;;;0.95;0.95;;;1.80;99.90;;;;;;5060180;28;20208;-76
2021/12/30 11:09:50;;;;;;;0.60;0.60;;;1.80;99.90;;;;;;5071628;28;20216;-76
2021/12/30 11:12:26;;;;;;;0.88;0.88;;;1.80;99.90;;;;;;5052584;28;20297;-76
2021/12/30 11:14:54;;;;;;;0.75;0.75;;;1.80;99.90;;;;;;5072858;28;20651;-76
2021/12/30 11:17:28;;;;;;;0.60;0.60;;;1.90;99.90;;;;;;5071412;28;20200;-76
2021/12/30 11:19:58;;;;;;;0.60;0.60;;;1.90;99.90;;;;;;5071503;28;20762;-75
2021/12/30 11:22:30;;;;;;;0.50;0.50;;;1.80;99.90;;;;;;5054345;28;20749;-76
2021/12/30 11:25:02;;;;;;;0.60;0.60;;;1.80;99.90;;;;;;5072408;28;20754;-75
2021/12/30 11:27:29;;;;;;;0.60;0.60;;;1.80;99.90;;;;;;5055123;28;20691;-76
2021/12/30 11:29:58;;;;;;;0.60;0.60;;;1.90;99.90;;;;;;5072495;28;20211;-76
2021/12/30 11:32:27;;;;;;;0.63;0.63;;;1.90;99.90;;;;;;5071812;28;20295;-76
2021/12/30 11:34:54;;;;;;;0.60;0.60;;;2.00;99.90;;;;;;5055263;28;20204;-76
2021/12/30 11:37:21;;;;;;;0.70;0.70;;;2.10;99.90;;;;;;5065016;28;20340;-76
2021/12/30 11:39:50;;;;;;;0.60;0.60;;;2.10;99.90;;;;;;5050893;28;20695;-76
2021/12/30 11:42:19;;;;;;;0.60;0.60;;;2.10;99.90;;;;;;5043026;28;20229;-77
2021/12/30 11:45:23;;;;;;;0.60;0.60;;;2.00;99.90;;;;;;5050244;28;20208;-76
2021/12/30 11:47:49;;;;;;;0.50;0.50;;;2.00;99.90;;;;;;5063770;28;20678;-77
2021/12/30 11:50:37;;;;;;;0.60;0.60;;;2.10;99.90;;;;;;5058886;28;20207;-77
2021/12/30 11:53:12;;;;;;;0.60;0.60;;;2.20;99.90;;;;;;5070833;28;20280;-76
2021/12/30 11:55:46;;;;;;;0.50;0.50;;;2.10;99.90;;;;;;5060765;28;20274;-76
2021/12/30 11:58:40;;;;;;;0.60;0.60;;;2.20;99.90;;;;;;5057585;28;20556;-77
2021/12/30 12:01:12;;;;;;;1.50;1.40;;;2.10;99.90;;;;;;5064252;28;20209;-78
2021/12/30 12:03:42;;;;;;;0.68;0.68;;;2.00;99.90;;;;;;5052244;28;20204;-76
2021/12/30 12:06:30;;;;;;;0.60;0.60;;;1.90;99.90;;;;;;5071488;28;20204;-77
2021/12/30 12:09:22;;;;;;;0.70;0.70;;;2.00;99.90;;;;;;5071862;28;20235;-78
2021/12/30 12:11:50;;;;;;;0.55;0.55;;;2.00;99.90;;;;;;5054036;28;20656;-78
2021/12/30 12:14:30;;;;;;;0.70;0.70;;;1.90;99.90;;;;;;5036475;28;20201;-77
2021/12/30 12:17:03;;;;;;;0.57;0.57;;;2.00;99.90;;;;;;5053646;28;20631;-78
2021/12/30 12:19:44;;;;;;;0.60;0.60;;;2.00;99.90;;;;;;5053302;28;20268;-78
2021/12/30 12:22:19;;;;;;;0.70;0.70;;;1.90;99.90;;;;;;5070576;28;20562;-77
2021/12/30 12:24:50;;;;;;;0.90;0.90;;;2.10;99.90;;;;;;5070442;28;20251;-77
2021/12/30 12:27:19;;;;;;;0.60;0.60;;;2.30;99.90;;;;;;5070414;28;20639;-77
2021/12/30 12:29:51;;;;;;;0.45;0.45;;;2.50;99.90;;;;;;5071385;28;20197;-77
2021/12/30 12:32:26;;;;;;;0.60;0.60;;;2.50;99.90;;;;;;5052620;28;20258;-76
2021/12/30 12:34:53;;;;;;;0.57;0.57;;;2.50;99.90;;;;;;5052180;28;20204;-78
2021/12/30 12:37:32;;;;;;;0.52;0.52;;;2.30;99.90;;;;;;5053079;28;20690;-77
2021/12/30 12:40:01;;;;;;;0.80;0.80;;;2.30;99.90;;;;;;5084645;28;20693;-76
2021/12/30 12:42:48;;;;;;;0.70;0.70;;;2.30;99.90;;;;;;5070146;28;20585;-77
2021/12/30 12:45:20;;;;;;;0.60;0.60;;;2.30;99.90;;;;;;5037434;28;20259;-77
2021/12/30 12:48:09;;;;;;;0.70;0.70;;;2.20;99.90;;;;;;5070250;28;20548;-76
2021/12/30 12:50:40;;;;;;;0.50;0.50;;;2.30;99.90;;;;;;5058894;28;20212;-76
2021/12/30 12:53:24;;;;;;;0.60;0.60;;;2.30;99.90;;;;;;5070196;28;20740;-76
2021/12/30 12:56:11;;;;;;;0.50;0.50;;;2.40;99.90;;;;;;5071073;28;20642;-76
2021/12/30 12:58:42;;;;;;;0.65;0.65;;;2.40;99.90;;;;;;5044121;28;20287;-76
2021/12/30 13:01:10;;;;;;;0.68;0.68;;;2.40;99.90;;;;;;5069912;28;20310;-77